Time;durP1;ratioP1;P1;durP2;ratioP2;P2;SDS_P1;SDS_P2;PMS_P1;PMS_P2;Temp;Humidity;BMP_temperature;BMP_pressure;BME280_temperature;BME280_humidity;BME280_pressure;Samples;Min_cycle;Max_cycle;Signal;HPM_P1;HPM_P2
2020/12/05 00:00:09;;;;;;;654.08;304.17;;;3.20;88.40;;;;;;5047563;28;20434;-77
2020/12/05 00:02:34;;;;;;;135.75;60.28;;;3.20;87.40;;;;;;5061490;28;20039;-77
2020/12/05 00:05:00;;;;;;;343.08;182.50;;;3.20;87.20;;;;;;5047355;28;20211;-77
2020/12/05 00:07:26;;;;;;;45.25;23.45;;;3.20;87.20;;;;;;5063176;28;20036;-77
2020/12/05 00:09:52;;;;;;;28.88;16.10;;;3.20;87.20;;;;;;5060697;28;20028;-77
2020/12/05 00:12:17;;;;;;;30.35;16.65;;;3.20;87.20;;;;;;5046253;28;20480;-77
2020/12/05 00:14:43;;;;;;;30.77;17.25;;;3.20;87.20;;;;;;5065169;28;20090;-77
2020/12/05 00:17:11;;;;;;;29.02;15.80;;;3.20;87.20;;;;;;5052840;28;20559;-77
2020/12/05 00:19:37;;;;;;;30.17;16.23;;;3.10;87.20;;;;;;5066225;28;20053;-77
2020/12/05 00:22:02;;;;;;;29.88;15.98;;;3.10;87.20;;;;;;5066878;28;20052;-77
2020/12/05 00:24:28;;;;;;;31.25;17.27;;;3.10;87.30;;;;;;5032171;28;20069;-77
2020/12/05 00:26:54;;;;;;;30.92;16.27;;;3.10;87.30;;;;;;5049385;28;20028;-76
2020/12/05 00:29:23;;;;;;;30.65;16.85;;;3.10;87.40;;;;;;5076820;28;20027;-77
2020/12/05 00:31:51;;;;;;;27.98;16.50;;;3.10;87.40;;;;;;5036768;28;20415;-76
2020/12/05 00:34:20;;;;;;;26.20;16.58;;;3.00;87.40;;;;;;5059975;28;20050;-76
2020/12/05 00:36:46;;;;;;;28.50;15.80;;;3.00;87.60;;;;;;5064336;28;20028;-77
2020/12/05 00:39:12;;;;;;;30.88;15.75;;;3.00;87.50;;;;;;5046064;28;20059;-76
2020/12/05 00:41:37;;;;;;;31.08;17.60;;;3.00;87.50;;;;;;5052677;28;20036;-76
2020/12/05 00:44:03;;;;;;;32.70;15.90;;;3.00;87.50;;;;;;5061820;28;20033;-76
2020/12/05 00:46:29;;;;;;;29.88;16.33;;;3.00;87.50;;;;;;5047644;28;20025;-77
2020/12/05 00:48:55;;;;;;;28.90;15.93;;;3.00;87.30;;;;;;5062700;28;20039;-76
2020/12/05 00:51:20;;;;;;;31.10;16.40;;;2.90;87.50;;;;;;5044447;28;20062;-76
2020/12/05 00:53:46;;;;;;;30.05;15.73;;;3.00;87.40;;;;;;5062471;28;20043;-77
2020/12/05 00:56:18;;;;;;;32.08;16.67;;;2.90;87.70;;;;;;5046099;28;20032;-76
2020/12/05 00:58:44;;;;;;;30.60;17.23;;;2.90;87.70;;;;;;5067546;28;20033;-77
2020/12/05 01:01:11;;;;;;;29.60;15.95;;;2.90;87.80;;;;;;5047457;28;20396;-76
2020/12/05 01:03:37;;;;;;;30.83;17.05;;;2.90;87.90;;;;;;5063608;28;20047;-76
2020/12/05 01:06:02;;;;;;;30.80;16.65;;;2.90;87.80;;;;;;5051232;28;20093;-76
2020/12/05 01:08:28;;;;;;;30.40;17.25;;;2.90;88.00;;;;;;5050303;28;20024;-76
2020/12/05 01:10:54;;;;;;;31.83;16.90;;;2.90;88.00;;;;;;5054538;28;20115;-76
2020/12/05 01:13:19;;;;;;;31.73;17.88;;;2.90;88.10;;;;;;5067663;28;20463;-76
2020/12/05 01:15:45;;;;;;;30.23;16.35;;;2.90;88.10;;;;;;5027225;28;20024;-76
2020/12/05 01:18:11;;;;;;;31.95;17.23;;;2.90;88.20;;;;;;5045744;28;20079;-77
2020/12/05 01:20:36;;;;;;;31.30;17.10;;;2.90;88.00;;;;;;5046623;28;20025;-76
2020/12/05 01:23:03;;;;;;;29.80;15.93;;;2.90;88.10;;;;;;5063431;28;20036;-75
2020/12/05 01:25:28;;;;;;;36.63;18.35;;;2.90;88.00;;;;;;5046700;28;20024;-76
2020/12/05 01:27:54;;;;;;;33.85;17.70;;;2.90;87.80;;;;;;5047309;28;20031;-76
2020/12/05 01:30:20;;;;;;;33.25;18.08;;;2.90;88.30;;;;;;5091529;28;20026;-77
2020/12/05 01:32:46;;;;;;;31.25;17.92;;;2.90;87.80;;;;;;5067989;28;20040;-78
2020/12/05 01:35:12;;;;;;;30.48;17.13;;;2.90;87.90;;;;;;5052035;28;20515;-78
2020/12/05 01:37:37;;;;;;;34.58;17.40;;;2.90;88.20;;;;;;5047570;28;20025;-76
2020/12/05 01:40:03;;;;;;;33.10;17.48;;;2.90;88.00;;;;;;5061459;28;20082;-78
2020/12/05 01:42:29;;;;;;;32.78;16.63;;;2.90;88.30;;;;;;5054721;28;20040;-78
2020/12/05 01:44:55;;;;;;;33.63;17.13;;;2.80;88.10;;;;;;5063076;28;20033;-78
2020/12/05 01:47:24;;;;;;;30.23;16.48;;;2.80;88.20;;;;;;5047571;28;20055;-78
2020/12/05 01:49:51;;;;;;;29.38;16.58;;;2.80;88.40;;;;;;5054978;28;20032;-77
2020/12/05 01:52:18;;;;;;;32.78;18.08;;;2.80;88.30;;;;;;5048831;28;20036;-78
2020/12/05 01:54:43;;;;;;;30.35;16.63;;;2.80;88.20;;;;;;5066203;28;20493;-77
2020/12/05 01:57:09;;;;;;;34.80;18.73;;;2.80;88.20;;;;;;5048687;28;20037;-78
2020/12/05 01:59:35;;;;;;;31.27;17.33;;;2.80;88.30;;;;;;5064362;28;20051;-77
2020/12/05 02:02:03;;;;;;;35.20;17.80;;;2.80;88.20;;;;;;5061839;28;20455;-78
2020/12/05 02:04:30;;;;;;;33.78;17.65;;;2.80;88.30;;;;;;5047412;28;20030;-78
2020/12/05 02:07:30;;;;;;;33.70;18.02;;;2.80;88.20;;;;;;5064819;28;20029;-78
2020/12/05 02:09:57;;;;;;;33.05;17.95;;;2.80;88.30;;;;;;5063238;28;20400;-78
2020/12/05 02:12:49;;;;;;;36.83;19.00;;;2.80;88.30;;;;;;5064802;28;20120;-77
2020/12/05 02:15:22;;;;;;;37.67;18.35;;;2.80;88.50;;;;;;5068386;28;20035;-78
2020/12/05 02:18:08;;;;;;;35.45;18.38;;;2.70;88.30;;;;;;5048037;28;20045;-78
2020/12/05 02:20:38;;;;;;;38.83;19.45;;;2.70;88.50;;;;;;5064168;28;20021;-77
2020/12/05 02:23:15;;;;;;;37.80;19.77;;;2.70;88.60;;;;;;5063362;28;20033;-78
2020/12/05 02:25:46;;;;;;;32.53;17.92;;;2.70;88.70;;;;;;5046352;28;20029;-78
2020/12/05 02:28:13;;;;;;;;;;;2.70;88.60;;;;;;5064149;28;20431;-78
2020/12/05 02:30:39;;;;;;;33.92;17.50;;;2.70;88.70;;;;;;5063650;28;19959;-78
2020/12/05 02:33:05;;;;;;;33.92;18.77;;;2.70;88.70;;;;;;5051527;28;20028;-78
2020/12/05 02:35:31;;;;;;;35.85;18.67;;;2.70;88.70;;;;;;5092508;28;20540;-77
2020/12/05 02:38:18;;;;;;;37.40;19.70;;;2.70;88.80;;;;;;5069503;28;20031;-78
2020/12/05 02:40:45;;;;;;;32.80;18.23;;;2.70;88.70;;;;;;5050756;28;20070;-77
2020/12/05 02:43:11;;;;;;;38.88;20.52;;;2.70;88.80;;;;;;5049674;28;20120;-77
2020/12/05 02:45:39;;;;;;;37.97;19.67;;;2.70;88.90;;;;;;5049812;28;20017;-77
2020/12/05 02:48:06;;;;;;;36.60;18.52;;;2.70;88.90;;;;;;5067358;28;20045;-77
2020/12/05 02:50:32;;;;;;;37.25;18.60;;;2.70;88.80;;;;;;5050752;28;20489;-77
2020/12/05 02:52:57;;;;;;;36.40;19.83;;;2.70;88.70;;;;;;5049266;28;20082;-77
2020/12/05 02:55:23;;;;;;;37.97;20.63;;;2.70;88.80;;;;;;5049884;28;20021;-77
2020/12/05 02:57:49;;;;;;;39.78;19.35;;;2.70;88.90;;;;;;5051912;28;20059;-77
2020/12/05 03:00:14;;;;;;;39.17;19.55;;;2.70;88.70;;;;;;5066265;28;20124;-77
2020/12/05 03:02:40;;;;;;;37.13;19.10;;;2.60;88.70;;;;;;5049945;28;20049;-76
2020/12/05 03:05:06;;;;;;;35.58;19.02;;;2.70;88.80;;;;;;5058110;28;20051;-77
2020/12/05 03:07:32;;;;;;;40.00;20.00;;;2.60;88.90;;;;;;5067182;28;20016;-77
2020/12/05 03:09:57;;;;;;;41.42;21.20;;;2.70;88.90;;;;;;5066546;28;20465;-77
2020/12/05 03:12:23;;;;;;;37.83;19.67;;;2.60;89.00;;;;;;5034086;28;20025;-77
2020/12/05 03:14:49;;;;;;;36.20;19.63;;;2.60;89.10;;;;;;5057420;28;20111;-77
2020/12/05 03:17:15;;;;;;;38.10;19.35;;;2.70;89.00;;;;;;5048590;28;20017;-77
2020/12/05 03:19:40;;;;;;;38.08;19.65;;;2.60;88.90;;;;;;5049904;28;20112;-77
2020/12/05 03:22:06;;;;;;;39.33;20.23;;;2.60;89.00;;;;;;5066720;28;20028;-77
2020/12/05 03:24:32;;;;;;;39.10;20.00;;;2.70;88.90;;;;;;5050264;28;20031;-77
2020/12/05 03:26:57;;;;;;;40.83;21.00;;;2.60;89.10;;;;;;5055813;28;20025;-77
2020/12/05 03:29:23;;;;;;;37.33;19.40;;;2.60;89.20;;;;;;5047619;28;20051;-76
2020/12/05 03:34:23;;;;;;;35.92;18.98;;;2.60;89.30;;;;;;5063336;28;20084;-77
2020/12/05 03:36:49;;;;;;;40.13;20.02;;;2.60;89.30;;;;;;5051527;28;20059;-77
2020/12/05 03:39:15;;;;;;;39.55;21.38;;;2.60;89.20;;;;;;5066083;28;20029;-77
2020/12/05 03:41:40;;;;;;;39.22;20.13;;;2.60;89.20;;;;;;5069482;28;20484;-77
2020/12/05 03:44:07;;;;;;;44.05;20.65;;;2.60;89.40;;;;;;5046334;28;20043;-77
2020/12/05 03:46:32;;;;;;;46.17;21.88;;;2.70;89.10;;;;;;5051241;28;20017;-76
2020/12/05 03:48:59;;;;;;;40.55;20.45;;;2.70;89.10;;;;;;5072466;28;20038;-77
2020/12/05 03:51:25;;;;;;;40.97;20.55;;;2.60;89.10;;;;;;5057166;28;20013;-76
2020/12/05 03:53:51;;;;;;;41.13;20.92;;;2.60;89.10;;;;;;5097305;28;20029;-77
2020/12/05 03:56:17;;;;;;;43.78;20.95;;;2.60;89.20;;;;;;5050032;28;20529;-76
2020/12/05 03:58:43;;;;;;;40.28;20.65;;;2.60;89.20;;;;;;5048361;28;20040;-76
2020/12/05 04:01:09;;;;;;;39.45;20.80;;;2.60;89.20;;;;;;5046678;28;20024;-77
2020/12/05 04:03:35;;;;;;;43.28;21.13;;;2.70;89.40;;;;;;5107957;22;20049;-78
2020/12/05 04:06:01;;;;;;;37.30;19.85;;;2.60;89.40;;;;;;5026547;28;20576;-78
2020/12/05 04:08:27;;;;;;;40.65;20.73;;;2.70;89.30;;;;;;5027239;28;20029;-80
2020/12/05 04:10:53;;;;;;;39.65;20.92;;;2.60;89.30;;;;;;5044685;28;20067;-79
2020/12/05 04:13:19;;;;;;;37.28;19.98;;;2.60;89.30;;;;;;5023402;28;20477;-78
2020/12/05 04:15:44;;;;;;;38.90;20.02;;;2.70;89.40;;;;;;5025133;28;20496;-76
2020/12/05 04:18:10;;;;;;;38.25;20.23;;;2.70;89.40;;;;;;5025816;28;20390;-79
2020/12/05 04:20:36;;;;;;;39.92;21.75;;;2.70;89.50;;;;;;5026067;28;20477;-78
2020/12/05 04:23:02;;;;;;;36.72;19.75;;;2.70;89.20;;;;;;5028211;28;20037;-79
2020/12/05 04:25:27;;;;;;;41.65;21.08;;;2.70;89.30;;;;;;5042621;28;20030;-78
2020/12/05 04:27:53;;;;;;;38.38;20.63;;;2.70;89.20;;;;;;5026377;28;20369;-79
2020/12/05 04:30:19;;;;;;;42.28;21.48;;;2.70;89.20;;;;;;5026605;28;20026;-78
2020/12/05 04:32:45;;;;;;;41.70;20.95;;;2.70;89.20;;;;;;5006838;28;20404;-78
2020/12/05 04:35:11;;;;;;;40.90;21.33;;;2.70;89.20;;;;;;5007875;28;20045;-78
2020/12/05 04:37:37;;;;;;;38.67;21.20;;;2.70;89.40;;;;;;5014441;28;20030;-78
2020/12/05 04:40:05;;;;;;;41.88;22.10;;;2.70;89.20;;;;;;5039547;28;21426;-79
2020/12/05 04:42:31;;;;;;;40.72;21.05;;;2.70;89.30;;;;;;5024327;28;20037;-78
2020/12/05 04:44:58;;;;;;;44.35;22.55;;;2.80;89.30;;;;;;5040742;28;20036;-77
2020/12/05 04:47:25;;;;;;;39.42;20.80;;;2.80;89.30;;;;;;5025878;28;20034;-78
2020/12/05 04:49:58;;;;;;;41.13;21.25;;;2.80;89.30;;;;;;5020563;28;20036;-79
2020/12/05 04:52:26;;;;;;;40.72;20.98;;;2.80;89.30;;;;;;5004835;28;20040;-78
2020/12/05 04:54:54;;;;;;;40.63;20.75;;;2.80;89.20;;;;;;5022058;28;20507;-78
2020/12/05 04:57:23;;;;;;;43.08;21.77;;;2.80;89.30;;;;;;5022162;28;20043;-78
2020/12/05 04:59:50;;;;;;;44.63;22.75;;;2.80;89.20;;;;;;5022918;28;20035;-78
2020/12/05 05:02:18;;;;;;;42.60;22.23;;;2.90;89.10;;;;;;5033862;28;21263;-77
2020/12/05 05:04:46;;;;;;;44.13;21.67;;;2.80;89.10;;;;;;5023407;28;20044;-78
2020/12/05 05:07:11;;;;;;;43.70;22.60;;;2.90;89.20;;;;;;5022684;28;20033;-78
2020/12/05 05:09:55;;;;;;;45.28;22.48;;;2.80;89.10;;;;;;5025826;28;20122;-78
2020/12/05 05:12:30;;;;;;;40.45;22.45;;;2.90;89.20;;;;;;5024002;28;20300;-78
2020/12/05 05:14:56;;;;;;;42.22;21.27;;;2.90;89.40;;;;;;5042086;28;20022;-78
2020/12/05 05:17:22;;;;;;;40.20;20.98;;;2.90;89.30;;;;;;5039681;28;20385;-78
2020/12/05 05:19:47;;;;;;;38.53;21.10;;;2.90;89.40;;;;;;5024738;28;20546;-78
2020/12/05 05:22:20;;;;;;;40.17;21.38;;;2.90;89.20;;;;;;5004888;28;20976;-78
2020/12/05 05:25:02;;;;;;;40.58;22.83;;;2.90;89.40;;;;;;5025004;28;20081;-78
2020/12/05 05:27:28;;;;;;;44.90;23.52;;;2.90;89.30;;;;;;5022252;28;20080;-79
2020/12/05 05:30:04;;;;;;;41.00;22.00;;;2.90;89.30;;;;;;5020163;28;20037;-80
2020/12/05 05:32:30;;;;;;;40.83;21.35;;;2.90;89.40;;;;;;5021868;28;20309;-79
2020/12/05 05:35:14;;;;;;;42.85;21.42;;;2.90;89.20;;;;;;5007303;28;20059;-78
2020/12/05 05:37:41;;;;;;;42.45;21.17;;;3.00;89.40;;;;;;5006100;28;20025;-78
2020/12/05 05:40:09;;;;;;;38.72;20.33;;;2.90;89.40;;;;;;5023531;28;20033;-80
2020/12/05 05:42:37;;;;;;;42.72;21.35;;;3.00;89.40;;;;;;5024330;28;20508;-79
2020/12/05 05:45:22;;;;;;;41.28;22.33;;;3.00;89.30;;;;;;5023194;28;20033;-79
2020/12/05 05:47:50;;;;;;;43.60;21.92;;;2.90;89.40;;;;;;5008450;28;20202;-79
2020/12/05 05:50:20;;;;;;;45.88;22.83;;;3.00;89.50;;;;;;5021438;28;20524;-78
2020/12/05 05:52:57;;;;;;;42.55;21.33;;;2.90;89.40;;;;;;5025450;28;20029;-79
2020/12/05 05:55:42;;;;;;;42.53;22.27;;;2.90;89.50;;;;;;5021138;28;20038;-78
2020/12/05 05:58:08;;;;;;;47.20;22.88;;;2.90;89.60;;;;;;5021434;28;20037;-79
2020/12/05 06:00:40;;;;;;;42.60;22.85;;;2.90;89.50;;;;;;5018565;28;20034;-79
2020/12/05 06:03:18;;;;;;;43.65;22.60;;;3.00;89.50;;;;;;5004018;28;20088;-79
2020/12/05 06:05:49;;;;;;;45.90;22.25;;;2.90;89.50;;;;;;5004657;28;20037;-79
2020/12/05 06:08:18;;;;;;;42.53;22.38;;;3.00;89.50;;;;;;5042676;28;20026;-79
2020/12/05 06:10:51;;;;;;;44.38;22.60;;;3.00;89.50;;;;;;5026092;28;20041;-80
2020/12/05 06:13:18;;;;;;;43.88;22.55;;;2.90;89.40;;;;;;5006517;28;20044;-78
2020/12/05 06:15:46;;;;;;;42.30;21.83;;;2.90;89.50;;;;;;5013396;28;20038;-78
2020/12/05 06:18:14;;;;;;;43.55;23.48;;;3.00;89.60;;;;;;5043457;28;20025;-78
2020/12/05 06:20:45;;;;;;;44.75;22.75;;;3.00;89.60;;;;;;5024084;28;20049;-79
2020/12/05 06:23:22;;;;;;;43.22;22.52;;;3.00;89.50;;;;;;5048745;28;20036;-79
2020/12/05 06:25:52;;;;;;;43.13;21.27;;;3.00;89.70;;;;;;5029866;28;20401;-79
2020/12/05 06:28:21;;;;;;;40.25;21.25;;;3.00;89.50;;;;;;5007168;28;20033;-79
2020/12/05 06:30:48;;;;;;;41.38;20.88;;;3.00;89.50;;;;;;5010239;28;20049;-80
2020/12/05 06:33:44;;;;;;;40.38;21.58;;;3.00;89.60;;;;;;5023343;28;20030;-80
2020/12/05 06:36:40;;;;;;;41.05;21.55;;;3.00;89.60;;;;;;4997691;28;20095;-79
2020/12/05 06:39:05;;;;;;;46.65;22.50;;;3.00;89.50;;;;;;5021197;28;20124;-78
2020/12/05 06:41:36;;;;;;;41.80;21.48;;;3.00;89.60;;;;;;5010964;28;20064;-78
2020/12/05 06:44:24;;;;;;;44.83;22.63;;;3.00;89.50;;;;;;5024087;28;20022;-80
2020/12/05 06:46:52;;;;;;;40.53;21.17;;;3.00;89.60;;;;;;5025190;28;20088;-78
2020/12/05 06:49:37;;;;;;;39.47;21.98;;;3.00;89.50;;;;;;5023286;28;20429;-79
2020/12/05 06:52:25;;;;;;;44.50;24.15;;;3.00;89.50;;;;;;5004594;28;20101;-80
2020/12/05 06:54:54;;;;;;;39.83;21.88;;;3.00;89.10;;;;;;5011485;28;20038;-79
2020/12/05 06:57:22;;;;;;;48.05;22.77;;;3.00;89.20;;;;;;5027657;28;20060;-80
2020/12/05 06:59:49;;;;;;;45.20;22.40;;;3.00;89.30;;;;;;5028986;28;20085;-80
2020/12/05 07:02:27;;;;;;;40.97;21.63;;;2.90;89.30;;;;;;5027100;28;20026;-79
2020/12/05 07:05:18;;;;;;;45.50;22.77;;;3.00;89.30;;;;;;5009227;28;20124;-79
2020/12/05 07:07:48;;;;;;;43.67;21.87;;;3.00;89.40;;;;;;5023920;28;20029;-79
2020/12/05 07:10:15;;;;;;;45.28;22.20;;;2.90;89.30;;;;;;5008385;28;20284;-79
2020/12/05 07:12:42;;;;;;;45.08;23.13;;;2.90;89.60;;;;;;5025834;28;20052;-78
2020/12/05 07:15:27;;;;;;;45.78;23.35;;;3.00;89.60;;;;;;5021137;28;20539;-78
2020/12/05 07:17:55;;;;;;;42.38;21.83;;;3.00;89.50;;;;;;5022164;28;20115;-78
2020/12/05 07:20:21;;;;;;;39.17;22.25;;;2.90;89.60;;;;;;5021616;28;20112;-78
2020/12/05 07:22:51;;;;;;;44.03;23.08;;;3.00;89.60;;;;;;5023305;28;20029;-78
2020/12/05 07:25:19;;;;;;;46.38;23.05;;;2.90;89.60;;;;;;5023088;28;20468;-78
2020/12/05 07:27:45;;;;;;;41.10;21.52;;;2.90;89.60;;;;;;5005435;28;20497;-78
2020/12/05 07:30:11;;;;;;;42.63;21.90;;;3.00;89.70;;;;;;5036339;28;20079;-78
2020/12/05 07:32:40;;;;;;;44.90;23.50;;;3.00;89.70;;;;;;5021782;28;20030;-79
2020/12/05 07:35:10;;;;;;;47.08;23.65;;;3.00;89.60;;;;;;5025635;28;20033;-78
2020/12/05 07:37:36;;;;;;;46.10;23.17;;;2.90;89.60;;;;;;5020900;28;20053;-78
2020/12/05 07:40:04;;;;;;;46.95;22.95;;;2.90;89.80;;;;;;5010168;28;20029;-78
2020/12/05 07:42:48;;;;;;;48.13;23.95;;;3.00;89.80;;;;;;5017701;28;20021;-79
2020/12/05 07:45:13;;;;;;;45.33;22.58;;;3.00;89.90;;;;;;5022385;28;20029;-78
2020/12/05 07:47:40;;;;;;;50.33;24.52;;;3.00;89.80;;;;;;5020838;28;20093;-78
2020/12/05 07:50:08;;;;;;;46.25;24.48;;;2.90;89.80;;;;;;5024299;28;20087;-78
2020/12/05 07:52:34;;;;;;;45.65;23.52;;;2.90;89.90;;;;;;5005381;28;20029;-78
2020/12/05 07:55:01;;;;;;;44.38;23.13;;;2.90;89.90;;;;;;5006834;28;20055;-78
2020/12/05 07:57:31;;;;;;;50.10;24.73;;;2.90;89.90;;;;;;5011100;28;20029;-78
2020/12/05 08:00:08;;;;;;;46.25;24.17;;;3.00;90.00;;;;;;5024325;28;20025;-78
2020/12/05 08:02:34;;;;;;;46.78;24.92;;;3.00;90.00;;;;;;5019888;28;20055;-84
2020/12/05 08:05:29;;;;;;;47.45;24.23;;;3.00;90.00;;;;;;5003575;28;20030;-82
2020/12/05 08:08:03;;;;;;;46.33;24.08;;;3.00;90.00;;;;;;5011786;28;20030;-78
2020/12/05 08:10:30;;;;;;;49.85;25.23;;;3.00;90.10;;;;;;5024648;28;20025;-78
2020/12/05 08:13:16;;;;;;;47.95;25.30;;;3.00;90.10;;;;;;5023807;28;20076;-79
2020/12/05 08:15:43;;;;;;;48.35;23.98;;;3.00;90.10;;;;;;5037121;28;20053;-80
2020/12/05 08:18:09;;;;;;;45.33;24.73;;;3.00;90.10;;;;;;5033911;28;20022;-82
2020/12/05 08:20:45;;;;;;;47.55;23.60;;;3.00;90.10;;;;;;5021985;28;20038;-79
2020/12/05 08:23:25;;;;;;;50.17;24.92;;;3.00;90.20;;;;;;5008580;28;20087;-78
2020/12/05 08:25:54;;;;;;;56.33;25.35;;;3.00;90.20;;;;;;5020480;28;20033;-79
2020/12/05 08:28:20;;;;;;;47.53;23.80;;;3.00;90.10;;;;;;5021200;28;20120;-79
2020/12/05 08:30:50;;;;;;;47.47;24.08;;;3.10;90.10;;;;;;5038891;28;20108;-80
2020/12/05 08:33:16;;;;;;;48.92;25.25;;;3.10;90.20;;;;;;5016070;28;20034;-80
2020/12/05 08:35:43;;;;;;;49.67;24.40;;;3.10;90.20;;;;;;4998055;28;20018;-80
2020/12/05 08:38:12;;;;;;;52.08;24.85;;;3.10;90.20;;;;;;5017362;28;20030;-77
2020/12/05 08:40:38;;;;;;;45.53;24.63;;;3.10;90.10;;;;;;5031474;28;20041;-82
2020/12/05 08:43:03;;;;;;;47.90;26.08;;;3.10;90.10;;;;;;5024499;28;20037;-78
2020/12/05 08:45:29;;;;;;;50.60;24.38;;;3.10;90.10;;;;;;5049491;28;20032;-78
2020/12/05 08:47:55;;;;;;;51.20;25.02;;;3.00;90.20;;;;;;5033788;28;20115;-80
2020/12/05 08:50:35;;;;;;;52.17;24.60;;;3.00;90.10;;;;;;5043122;28;20022;-81
2020/12/05 08:53:03;;;;;;;47.67;25.77;;;3.00;90.20;;;;;;5022735;28;20029;-81
2020/12/05 08:55:31;;;;;;;47.47;24.42;;;3.00;90.30;;;;;;5019303;28;20049;-81
2020/12/05 08:57:59;;;;;;;48.55;24.13;;;3.10;90.20;;;;;;5038256;28;20030;-81
2020/12/05 09:00:26;;;;;;;47.70;24.48;;;3.10;90.00;;;;;;5015929;28;20194;-78
2020/12/05 09:02:52;;;;;;;45.88;24.00;;;3.10;90.10;;;;;;5039046;28;20493;-79
2020/12/05 09:05:18;;;;;;;48.17;24.25;;;3.00;90.20;;;;;;5017447;28;20045;-79
2020/12/05 09:07:59;;;;;;;49.15;25.33;;;3.00;90.20;;;;;;5012552;28;20034;-77
2020/12/05 09:10:26;;;;;;;45.33;24.63;;;3.10;90.20;;;;;;5003333;28;20026;-77
2020/12/05 09:12:52;;;;;;;47.70;25.17;;;3.00;90.20;;;;;;5039038;28;20033;-80
2020/12/05 09:15:19;;;;;;;49.10;25.25;;;3.10;90.10;;;;;;5022751;28;20026;-81
2020/12/05 09:17:54;;;;;;;52.53;25.08;;;3.10;90.00;;;;;;5037301;28;20053;-81
2020/12/05 09:20:21;;;;;;;48.67;24.67;;;3.10;89.90;;;;;;4981309;28;20164;-81
2020/12/05 09:22:49;;;;;;;43.67;23.38;;;3.20;91.70;;;;;;5034946;28;20029;-81
2020/12/05 09:25:36;;;;;;;47.53;25.00;;;3.50;91.70;;;;;;5006955;28;20108;-80
2020/12/05 09:28:08;;;;;;;45.10;24.55;;;3.70;90.00;;;;;;5013668;28;20075;-80
2020/12/05 09:30:34;;;;;;;46.38;22.70;;;3.70;88.40;;;;;;5003731;28;20033;-79
2020/12/05 09:33:07;;;;;;;50.03;24.17;;;3.50;88.30;;;;;;5039585;28;20022;-79
2020/12/05 09:35:32;;;;;;;45.05;24.52;;;3.40;88.60;;;;;;5020323;28;20120;-77
2020/12/05 09:38:02;;;;;;;48.28;24.63;;;3.40;88.70;;;;;;5018018;28;20111;-77
2020/12/05 09:40:28;;;;;;;47.92;24.88;;;3.30;88.80;;;;;;5022200;28;20052;-81
2020/12/05 09:42:53;;;;;;;47.08;24.33;;;3.30;88.90;;;;;;5020133;28;20033;-79
2020/12/05 09:45:19;;;;;;;48.67;23.80;;;3.30;89.50;;;;;;5017818;28;20032;-75
2020/12/05 09:47:45;;;;;;;44.83;23.35;;;3.30;89.10;;;;;;5019046;28;20026;-78
2020/12/05 09:50:11;;;;;;;46.08;24.00;;;3.20;89.00;;;;;;5033343;28;20031;-80
2020/12/05 09:52:38;;;;;;;46.90;25.40;;;3.20;89.50;;;;;;5015360;28;20061;-80
2020/12/05 09:55:04;;;;;;;49.42;24.75;;;3.20;89.50;;;;;;5037230;28;20117;-78
2020/12/05 09:57:30;;;;;;;49.80;25.33;;;3.20;89.30;;;;;;5022965;28;20018;-78
2020/12/05 09:59:56;;;;;;;47.08;23.45;;;3.20;89.60;;;;;;5035878;28;20133;-79
2020/12/05 10:02:22;;;;;;;46.50;22.42;;;3.10;89.80;;;;;;5017537;28;20108;-78
2020/12/05 10:04:47;;;;;;;47.30;23.20;;;3.20;90.00;;;;;;5019225;28;20117;-78
2020/12/05 10:07:13;;;;;;;46.72;23.73;;;3.20;89.40;;;;;;4998827;28;20061;-81
2020/12/05 10:09:39;;;;;;;48.88;24.83;;;3.20;89.60;;;;;;5017763;28;20037;-79
2020/12/05 10:12:04;;;;;;;45.20;24.30;;;3.20;89.40;;;;;;5004375;28;20022;-79
2020/12/05 10:14:30;;;;;;;47.83;24.10;;;3.10;89.70;;;;;;5018521;28;20062;-80
2020/12/05 10:16:57;;;;;;;47.25;24.65;;;3.10;90.20;;;;;;5017806;28;20033;-79
2020/12/05 10:19:23;;;;;;;47.78;25.17;;;3.10;90.10;;;;;;5018321;28;20040;-82
2020/12/05 10:21:49;;;;;;;47.97;25.40;;;3.10;90.10;;;;;;5021884;28;20034;-81
2020/12/05 10:24:16;;;;;;;45.42;24.15;;;3.20;90.10;;;;;;5019949;28;20029;-80
2020/12/05 10:26:50;;;;;;;50.33;25.17;;;3.20;90.20;;;;;;5023762;28;20026;-80
2020/12/05 10:29:16;;;;;;;48.75;25.00;;;3.20;90.20;;;;;;5039309;28;20041;-81
2020/12/05 10:31:46;;;;;;;42.85;23.40;;;3.20;90.20;;;;;;5032840;28;20060;-80
2020/12/05 10:34:13;;;;;;;48.60;23.70;;;3.30;90.20;;;;;;5022869;28;20029;-82
2020/12/05 10:36:39;;;;;;;49.22;24.88;;;3.30;90.30;;;;;;5003967;28;20034;-81
2020/12/05 10:39:06;;;;;;;44.45;23.73;;;3.30;90.10;;;;;;5019436;28;20038;-80
2020/12/05 10:41:32;;;;;;;44.17;23.45;;;3.40;90.10;;;;;;5016895;28;20030;-81
2020/12/05 10:43:58;;;;;;;40.00;22.20;;;3.40;90.00;;;;;;5001763;28;20034;-82
2020/12/05 10:46:24;;;;;;;46.22;23.23;;;3.40;90.10;;;;;;5026017;28;20018;-81
2020/12/05 10:48:50;;;;;;;47.92;24.13;;;3.40;90.10;;;;;;5016678;28;20037;-80
2020/12/05 10:51:16;;;;;;;45.90;23.20;;;3.40;90.10;;;;;;5015084;28;20030;-82
2020/12/05 10:53:41;;;;;;;43.95;22.42;;;3.40;90.10;;;;;;5022597;28;20500;-80
2020/12/05 10:56:07;;;;;;;48.53;25.65;;;3.50;90.10;;;;;;5020299;28;20029;-79
2020/12/05 10:58:33;;;;;;;43.17;21.80;;;3.50;90.10;;;;;;5021432;28;20062;-79
2020/12/05 11:00:59;;;;;;;40.95;22.33;;;3.50;89.90;;;;;;5007328;28;20402;-80
2020/12/05 11:03:25;;;;;;;45.20;21.92;;;3.50;89.90;;;;;;5009709;28;20083;-80
2020/12/05 11:05:50;;;;;;;42.42;21.55;;;3.60;89.90;;;;;;5023592;28;20030;-80
2020/12/05 11:08:16;;;;;;;40.55;22.20;;;3.60;89.90;;;;;;5023756;28;20022;-81
2020/12/05 11:10:41;;;;;;;44.33;22.15;;;3.60;89.80;;;;;;5008225;28;20079;-82
2020/12/05 11:13:07;;;;;;;39.67;21.33;;;3.60;90.00;;;;;;5009338;28;20128;-80
2020/12/05 11:15:33;;;;;;;39.50;20.98;;;3.70;90.20;;;;;;5023670;28;20121;-80
2020/12/05 11:17:59;;;;;;;42.63;21.73;;;3.70;90.00;;;;;;5023799;28;20507;-80
2020/12/05 11:20:24;;;;;;;39.88;20.08;;;3.70;90.10;;;;;;5041878;28;20030;-81
2020/12/05 11:22:50;;;;;;;33.38;18.80;;;3.80;90.20;;;;;;5044690;28;20125;-78
2020/12/05 11:25:16;;;;;;;41.67;20.05;;;3.90;91.60;;;;;;5019019;28;20077;-79
2020/12/05 11:27:41;;;;;;;40.17;20.92;;;4.10;91.00;;;;;;5025259;28;20109;-78
2020/12/05 11:30:08;;;;;;;35.78;19.55;;;4.20;89.70;;;;;;5023483;28;20029;-78
2020/12/05 11:32:34;;;;;;;34.45;19.13;;;4.20;89.20;;;;;;5022247;28;20409;-79
2020/12/05 11:34:59;;;;;;;33.83;18.77;;;4.20;89.50;;;;;;5041427;28;20021;-80
2020/12/05 11:37:25;;;;;;;33.35;17.70;;;4.60;91.70;;;;;;5024220;28;20962;-79
2020/12/05 11:39:51;;;;;;;30.40;16.63;;;4.90;91.80;;;;;;5044335;28;20389;-82
2020/12/05 11:42:16;;;;;;;37.67;18.35;;;5.10;90.10;;;;;;5044158;28;20025;-81
2020/12/05 11:44:42;;;;;;;34.53;18.35;;;5.10;87.30;;;;;;5028685;28;20059;-81
2020/12/05 11:47:08;;;;;;;39.17;18.77;;;5.00;87.20;;;;;;5025585;28;20037;-83
2020/12/05 11:49:33;;;;;;;31.42;16.60;;;5.00;87.50;;;;;;5027537;28;20625;-80
2020/12/05 11:52:01;;;;;;;35.72;17.63;;;4.80;88.00;;;;;;5040057;28;20436;-79
2020/12/05 11:54:27;;;;;;;30.55;16.67;;;4.70;88.60;;;;;;5004661;28;20030;-83
2020/12/05 11:56:52;;;;;;;30.65;16.25;;;4.60;89.10;;;;;;5043886;28;20499;-81
2020/12/05 11:59:18;;;;;;;30.65;16.33;;;4.60;89.30;;;;;;5003011;28;20062;-80
2020/12/05 12:01:45;;;;;;;28.70;15.82;;;4.60;89.10;;;;;;5012927;28;20037;-81
2020/12/05 12:04:10;;;;;;;28.55;14.98;;;4.60;89.30;;;;;;5041701;28;20041;-81
2020/12/05 12:06:38;;;;;;;28.38;15.30;;;4.60;89.30;;;;;;5045785;28;20104;-80
2020/12/05 12:09:16;;;;;;;26.98;15.50;;;4.60;89.50;;;;;;5023985;28;20021;-84
2020/12/05 12:11:49;;;;;;;29.80;16.00;;;4.60;89.70;;;;;;5037178;28;20107;-81
2020/12/05 12:14:14;;;;;;;25.88;15.98;;;4.60;89.80;;;;;;5008695;28;20026;-80
2020/12/05 12:16:40;;;;;;;31.63;16.13;;;4.60;89.60;;;;;;4999462;28;20036;-82
2020/12/05 12:19:06;;;;;;;25.30;14.50;;;4.70;91.70;;;;;;5031784;28;20060;-81
2020/12/05 12:21:34;;;;;;;25.95;14.50;;;4.90;90.70;;;;;;5028919;28;20028;-81
2020/12/05 12:24:00;;;;;;;28.73;15.05;;;5.00;89.20;;;;;;5025007;28;20030;-84
2020/12/05 12:26:29;;;;;;;26.75;13.98;;;4.90;89.10;;;;;;5027091;28;20472;-83
2020/12/05 12:28:55;;;;;;;26.40;14.00;;;5.00;89.00;;;;;;5025925;28;20022;-80
2020/12/05 12:31:21;;;;;;;24.80;14.68;;;4.90;89.30;;;;;;5027791;28;20028;-80
2020/12/05 12:33:47;;;;;;;23.10;13.50;;;4.90;89.60;;;;;;5024113;28;20172;-79
2020/12/05 12:36:23;;;;;;;22.90;13.23;;;4.80;89.70;;;;;;5028502;28;20547;-81
2020/12/05 12:38:49;;;;;;;24.45;14.15;;;4.90;89.60;;;;;;5020616;28;20497;-79
2020/12/05 12:41:19;;;;;;;26.55;14.20;;;4.90;89.40;;;;;;5043470;28;20045;-82
2020/12/05 12:43:51;;;;;;;26.95;14.05;;;4.80;89.70;;;;;;5027073;28;20029;-82
2020/12/05 12:46:20;;;;;;;22.98;14.30;;;4.80;90.10;;;;;;5044036;28;20018;-84